sensor_id;sensor_type;location;lat;lon;timestamp;temperature;humidity
5850;DHT22;2951;47.712;9.400;2023-02-23T00:00:25;7.60;99.90
5850;DHT22;2951;47.712;9.400;2023-02-23T00:02:56;7.70;99.90
5850;DHT22;2951;47.712;9.400;2023-02-23T00:05:27;7.70;99.90
5850;DHT22;2951;47.712;9.400;2023-02-23T00:07:54;7.70;99.90
5850;DHT22;2951;47.712;9.400;2023-02-23T00:10:21;7.70;99.90
5850;DHT22;2951;47.712;9.400;2023-02-23T00:12:59;7.70;99.90
5850;DHT22;2951;47.712;9.400;2023-02-23T00:15:26;7.50;99.90
5850;DHT22;2951;47.712;9.400;2023-02-23T00:17:53;7.40;99.90
5850;DHT22;2951;47.712;9.400;2023-02-23T00:20:21;7.50;99.90
5850;DHT22;2951;47.712;9.400;2023-02-23T00:22:53;7.60;99.90
5850;DHT22;2951;47.712;9.400;2023-02-23T00:25:20;7.70;99.90
5850;DHT22;2951;47.712;9.400;2023-02-23T00:27:47;7.70;99.90
5850;DHT22;2951;47.712;9.400;2023-02-23T00:30:15;7.70;99.90
5850;DHT22;2951;47.712;9.400;2023-02-23T00:32:44;7.70;99.90
5850;DHT22;2951;47.712;9.400;2023-02-23T00:35:11;7.70;99.90
5850;DHT22;2951;47.712;9.400;2023-02-23T00:37:46;7.70;99.90
5850;DHT22;2951;47.712;9.400;2023-02-23T00:40:13;7.80;99.90
5850;DHT22;2951;47.712;9.400;2023-02-23T00:42:45;7.70;99.90
5850;DHT22;2951;47.712;9.400;2023-02-23T00:45:13;7.70;99.90
5850;DHT22;2951;47.712;9.400;2023-02-23T00:47:40;7.70;99.90
5850;DHT22;2951;47.712;9.400;2023-02-23T00:50:11;7.60;99.90
5850;DHT22;2951;47.712;9.400;2023-02-23T00:52:38;7.70;99.90
5850;DHT22;2951;47.712;9.400;2023-02-23T00:55:09;7.70;99.90
5850;DHT22;2951;47.712;9.400;2023-02-23T00:57:37;7.80;99.90
5850;DHT22;2951;47.712;9.400;2023-02-23T01:00:04;7.80;99.90
5850;DHT22;2951;47.712;9.400;2023-02-23T01:02:46;7.80;99.90
5850;DHT22;2951;47.712;9.400;2023-02-23T01:05:13;7.80;99.90
5850;DHT22;2951;47.712;9.400;2023-02-23T01:07:41;7.80;99.90
5850;DHT22;2951;47.712;9.400;2023-02-23T01:10:11;7.80;99.90
5850;DHT22;2951;47.712;9.400;2023-02-23T01:12:45;7.80;99.90
5850;DHT22;2951;47.712;9.400;2023-02-23T01:15:12;7.80;99.90
5850;DHT22;2951;47.712;9.400;2023-02-23T01:17:39;7.90;99.90
5850;DHT22;2951;47.712;9.400;2023-02-23T01:20:05;7.80;99.90
5850;DHT22;2951;47.712;9.400;2023-02-23T01:22:44;7.90;99.90
5850;DHT22;2951;47.712;9.400;2023-02-23T01:25:11;7.80;99.90
5850;DHT22;2951;47.712;9.400;2023-02-23T01:27:39;7.90;99.90
5850;DHT22;2951;47.712;9.400;2023-02-23T01:30:06;7.90;99.90
5850;DHT22;2951;47.712;9.400;2023-02-23T01:32:33;7.90;99.90
5850;DHT22;2951;47.712;9.400;2023-02-23T01:35:02;7.90;99.90
5850;DHT22;2951;47.712;9.400;2023-02-23T01:37:30;7.90;99.90
5850;DHT22;2951;47.712;9.400;2023-02-23T01:39:57;7.90;99.90
5850;DHT22;2951;47.712;9.400;2023-02-23T01:42:23;7.90;99.90
5850;DHT22;2951;47.712;9.400;2023-02-23T01:47:17;7.90;99.90
5850;DHT22;2951;47.712;9.400;2023-02-23T01:49:45;7.90;99.90
5850;DHT22;2951;47.712;9.400;2023-02-23T01:52:13;7.90;99.90
5850;DHT22;2951;47.712;9.400;2023-02-23T01:54:43;7.90;99.90
5850;DHT22;2951;47.712;9.400;2023-02-23T01:57:15;8.00;99.90
5850;DHT22;2951;47.712;9.400;2023-02-23T01:59:44;7.90;99.90
5850;DHT22;2951;47.712;9.400;2023-02-23T02:02:11;7.80;99.90
5850;DHT22;2951;47.712;9.400;2023-02-23T02:04:39;7.70;99.90
5850;DHT22;2951;47.712;9.400;2023-02-23T02:07:17;7.60;99.90
5850;DHT22;2951;47.712;9.400;2023-02-23T02:09:45;7.60;99.90
5850;DHT22;2951;47.712;9.400;2023-02-23T02:12:32;7.70;99.90
5850;DHT22;2951;47.712;9.400;2023-02-23T02:14:59;7.80;99.90
5850;DHT22;2951;47.712;9.400;2023-02-23T02:40:45;7.50;99.90
5850;DHT22;2951;47.712;9.400;2023-02-23T02:45:53;7.70;99.90
5850;DHT22;2951;47.712;9.400;2023-02-23T02:50:54;7.80;99.90
5850;DHT22;2951;47.712;9.400;2023-02-23T02:53:23;7.80;99.90
5850;DHT22;2951;47.712;9.400;2023-02-23T02:55:51;7.90;99.90
5850;DHT22;2951;47.712;9.400;2023-02-23T02:58:21;7.90;99.90
5850;DHT22;2951;47.712;9.400;2023-02-23T03:00:50;7.80;99.90
5850;DHT22;2951;47.712;9.400;2023-02-23T03:06:24;7.80;99.90
5850;DHT22;2951;47.712;9.400;2023-02-23T03:09:16;7.90;99.90
5850;DHT22;2951;47.712;9.400;2023-02-23T03:12:06;7.90;99.90
5850;DHT22;2951;47.712;9.400;2023-02-23T03:17:45;7.90;99.90
5850;DHT22;2951;47.712;9.400;2023-02-23T03:23:21;7.80;99.90
5850;DHT22;2951;47.712;9.400;2023-02-23T03:29:08;7.90;99.90
5850;DHT22;2951;47.712;9.400;2023-02-23T03:32:02;7.90;99.90
5850;DHT22;2951;47.712;9.400;2023-02-23T03:34:52;7.80;99.90
5850;DHT22;2951;47.712;9.400;2023-02-23T03:37:46;7.80;99.90
5850;DHT22;2951;47.712;9.400;2023-02-23T03:40:34;7.80;99.90
5850;DHT22;2951;47.712;9.400;2023-02-23T03:43:24;7.80;99.90
5850;DHT22;2951;47.712;9.400;2023-02-23T03:46:11;7.80;99.90
5850;DHT22;2951;47.712;9.400;2023-02-23T03:48:59;7.80;99.90
5850;DHT22;2951;47.712;9.400;2023-02-23T03:51:46;7.70;99.90
5850;DHT22;2951;47.712;9.400;2023-02-23T03:54:36;7.70;99.90
5850;DHT22;2951;47.712;9.400;2023-02-23T03:57:23;7.70;99.90
5850;DHT22;2951;47.712;9.400;2023-02-23T04:00:11;7.70;99.90
5850;DHT22;2951;47.712;9.400;2023-02-23T04:03:00;7.70;99.90
5850;DHT22;2951;47.712;9.400;2023-02-23T04:05:47;7.70;99.90
5850;DHT22;2951;47.712;9.400;2023-02-23T04:08:35;7.80;99.90
5850;DHT22;2951;47.712;9.400;2023-02-23T04:14:41;7.80;99.90
5850;DHT22;2951;47.712;9.400;2023-02-23T04:17:09;7.80;99.90
5850;DHT22;2951;47.712;9.400;2023-02-23T04:19:36;7.80;99.90
5850;DHT22;2951;47.712;9.400;2023-02-23T04:22:02;7.80;99.90
5850;DHT22;2951;47.712;9.400;2023-02-23T04:24:29;7.80;99.90
5850;DHT22;2951;47.712;9.400;2023-02-23T04:26:56;7.80;99.90
5850;DHT22;2951;47.712;9.400;2023-02-23T04:29:23;7.80;99.90
5850;DHT22;2951;47.712;9.400;2023-02-23T04:31:50;7.80;99.90
5850;DHT22;2951;47.712;9.400;2023-02-23T04:34:17;7.80;99.90
5850;DHT22;2951;47.712;9.400;2023-02-23T04:36:44;7.90;99.90
5850;DHT22;2951;47.712;9.400;2023-02-23T04:39:10;7.90;99.90
5850;DHT22;2951;47.712;9.400;2023-02-23T04:41:37;7.90;99.90
5850;DHT22;2951;47.712;9.400;2023-02-23T04:44:03;7.90;99.90
5850;DHT22;2951;47.712;9.400;2023-02-23T04:46:30;8.00;99.90
5850;DHT22;2951;47.712;9.400;2023-02-23T04:48:57;8.00;99.90
5850;DHT22;2951;47.712;9.400;2023-02-23T04:51:24;8.00;99.90
5850;DHT22;2951;47.712;9.400;2023-02-23T04:53:56;8.00;99.90
5850;DHT22;2951;47.712;9.400;2023-02-23T04:56:22;8.00;99.90
5850;DHT22;2951;47.712;9.400;2023-02-23T04:58:49;7.90;99.90
5850;DHT22;2951;47.712;9.400;2023-02-23T05:01:16;7.90;99.90
5850;DHT22;2951;47.712;9.400;2023-02-23T05:03:43;7.90;99.90
5850;DHT22;2951;47.712;9.400;2023-02-23T05:06:10;7.90;99.90
5850;DHT22;2951;47.712;9.400;2023-02-23T05:08:38;7.90;99.90
5850;DHT22;2951;47.712;9.400;2023-02-23T05:11:05;7.90;99.90
5850;DHT22;2951;47.712;9.400;2023-02-23T05:13:31;7.90;99.90
5850;DHT22;2951;47.712;9.400;2023-02-23T05:15:58;7.90;99.90
5850;DHT22;2951;47.712;9.400;2023-02-23T05:18:25;7.90;99.90
5850;DHT22;2951;47.712;9.400;2023-02-23T05:20:52;7.80;99.90
5850;DHT22;2951;47.712;9.400;2023-02-23T05:23:19;7.90;99.90
5850;DHT22;2951;47.712;9.400;2023-02-23T05:25:47;8.00;99.90
5850;DHT22;2951;47.712;9.400;2023-02-23T05:28:13;8.00;99.90
5850;DHT22;2951;47.712;9.400;2023-02-23T05:30:40;8.00;99.90
5850;DHT22;2951;47.712;9.400;2023-02-23T05:33:07;8.00;99.90
5850;DHT22;2951;47.712;9.400;2023-02-23T05:35:33;8.00;99.90
5850;DHT22;2951;47.712;9.400;2023-02-23T05:38:01;7.90;99.90
5850;DHT22;2951;47.712;9.400;2023-02-23T05:40:27;7.90;99.90
5850;DHT22;2951;47.712;9.400;2023-02-23T05:42:57;7.90;99.90
5850;DHT22;2951;47.712;9.400;2023-02-23T05:45:23;7.90;99.90
5850;DHT22;2951;47.712;9.400;2023-02-23T05:47:50;7.90;99.90
5850;DHT22;2951;47.712;9.400;2023-02-23T05:50:17;7.80;99.90
5850;DHT22;2951;47.712;9.400;2023-02-23T05:52:44;7.80;99.90
5850;DHT22;2951;47.712;9.400;2023-02-23T05:55:11;7.80;99.90
5850;DHT22;2951;47.712;9.400;2023-02-23T05:57:38;7.80;99.90
5850;DHT22;2951;47.712;9.400;2023-02-23T06:00:06;7.80;99.90
5850;DHT22;2951;47.712;9.400;2023-02-23T06:02:33;7.70;99.90
5850;DHT22;2951;47.712;9.400;2023-02-23T06:05:00;7.70;99.90
5850;DHT22;2951;47.712;9.400;2023-02-23T06:07:26;7.70;99.90
5850;DHT22;2951;47.712;9.400;2023-02-23T06:09:53;7.70;99.90
5850;DHT22;2951;47.712;9.400;2023-02-23T06:12:20;7.70;99.90
5850;DHT22;2951;47.712;9.400;2023-02-23T06:14:46;7.70;99.90
5850;DHT22;2951;47.712;9.400;2023-02-23T06:17:13;7.70;99.90
5850;DHT22;2951;47.712;9.400;2023-02-23T06:19:39;7.70;99.90
5850;DHT22;2951;47.712;9.400;2023-02-23T06:22:06;7.70;99.90
5850;DHT22;2951;47.712;9.400;2023-02-23T06:24:33;7.70;99.90
5850;DHT22;2951;47.712;9.400;2023-02-23T06:27:03;7.70;99.90
5850;DHT22;2951;47.712;9.400;2023-02-23T06:29:30;7.70;99.90
5850;DHT22;2951;47.712;9.400;2023-02-23T06:31:57;7.70;99.90
5850;DHT22;2951;47.712;9.400;2023-02-23T06:34:26;7.70;99.90
5850;DHT22;2951;47.712;9.400;2023-02-23T06:36:53;7.70;99.90
5850;DHT22;2951;47.712;9.400;2023-02-23T06:39:19;7.70;99.90
5850;DHT22;2951;47.712;9.400;2023-02-23T06:41:46;7.70;99.90
5850;DHT22;2951;47.712;9.400;2023-02-23T06:44:13;7.70;99.90
5850;DHT22;2951;47.712;9.400;2023-02-23T06:46:39;7.70;99.90
5850;DHT22;2951;47.712;9.400;2023-02-23T06:49:06;7.70;99.90
5850;DHT22;2951;47.712;9.400;2023-02-23T06:51:32;7.70;99.90
5850;DHT22;2951;47.712;9.400;2023-02-23T06:53:59;7.80;99.90
5850;DHT22;2951;47.712;9.400;2023-02-23T06:56:26;7.80;99.90
5850;DHT22;2951;47.712;9.400;2023-02-23T06:58:52;7.80;99.90
5850;DHT22;2951;47.712;9.400;2023-02-23T07:01:19;7.80;99.90
5850;DHT22;2951;47.712;9.400;2023-02-23T07:03:46;7.90;99.90
5850;DHT22;2951;47.712;9.400;2023-02-23T07:06:13;7.90;99.90
5850;DHT22;2951;47.712;9.400;2023-02-23T07:08:40;8.00;99.90
5850;DHT22;2951;47.712;9.400;2023-02-23T07:11:10;8.00;99.90
5850;DHT22;2951;47.712;9.400;2023-02-23T07:13:38;8.00;99.90
5850;DHT22;2951;47.712;9.400;2023-02-23T07:16:06;8.00;99.90
5850;DHT22;2951;47.712;9.400;2023-02-23T07:18:32;8.00;99.90
5850;DHT22;2951;47.712;9.400;2023-02-23T07:20:59;8.10;99.90
5850;DHT22;2951;47.712;9.400;2023-02-23T07:23:26;8.10;99.90
5850;DHT22;2951;47.712;9.400;2023-02-23T07:25:53;8.10;99.90
5850;DHT22;2951;47.712;9.400;2023-02-23T07:28:21;8.10;99.90
5850;DHT22;2951;47.712;9.400;2023-02-23T07:30:48;8.20;99.90
5850;DHT22;2951;47.712;9.400;2023-02-23T07:33:15;8.30;99.90
5850;DHT22;2951;47.712;9.400;2023-02-23T07:35:42;8.30;99.90
5850;DHT22;2951;47.712;9.400;2023-02-23T07:38:10;8.40;99.90
5850;DHT22;2951;47.712;9.400;2023-02-23T07:40:37;8.40;99.90
5850;DHT22;2951;47.712;9.400;2023-02-23T07:43:05;8.40;99.90
5850;DHT22;2951;47.712;9.400;2023-02-23T07:45:32;8.50;99.90
5850;DHT22;2951;47.712;9.400;2023-02-23T07:47:59;8.60;99.90
5850;DHT22;2951;47.712;9.400;2023-02-23T07:50:25;8.70;99.90
5850;DHT22;2951;47.712;9.400;2023-02-23T07:52:52;8.60;99.90
5850;DHT22;2951;47.712;9.400;2023-02-23T07:55:19;8.60;99.90
5850;DHT22;2951;47.712;9.400;2023-02-23T07:57:46;8.70;99.90
5850;DHT22;2951;47.712;9.400;2023-02-23T08:00:13;8.80;99.90
5850;DHT22;2951;47.712;9.400;2023-02-23T08:02:40;8.80;99.90
5850;DHT22;2951;47.712;9.400;2023-02-23T08:05:06;8.80;99.90
5850;DHT22;2951;47.712;9.400;2023-02-23T08:07:33;8.80;99.90
5850;DHT22;2951;47.712;9.400;2023-02-23T08:10:00;8.80;99.90
5850;DHT22;2951;47.712;9.400;2023-02-23T08:12:27;8.80;99.90
5850;DHT22;2951;47.712;9.400;2023-02-23T08:14:53;8.80;99.90
5850;DHT22;2951;47.712;9.400;2023-02-23T08:17:20;8.80;99.90
5850;DHT22;2951;47.712;9.400;2023-02-23T08:19:47;9.00;99.90
5850;DHT22;2951;47.712;9.400;2023-02-23T08:22:15;9.10;99.90
5850;DHT22;2951;47.712;9.400;2023-02-23T08:24:41;9.20;99.90
5850;DHT22;2951;47.712;9.400;2023-02-23T08:27:08;9.20;99.90
5850;DHT22;2951;47.712;9.400;2023-02-23T08:29:34;9.20;99.90
5850;DHT22;2951;47.712;9.400;2023-02-23T08:32:02;9.10;99.90
5850;DHT22;2951;47.712;9.400;2023-02-23T08:34:29;9.20;99.90
5850;DHT22;2951;47.712;9.400;2023-02-23T08:36:56;9.40;99.90
5850;DHT22;2951;47.712;9.400;2023-02-23T08:39:22;9.50;99.90
5850;DHT22;2951;47.712;9.400;2023-02-23T08:41:49;9.50;99.90
5850;DHT22;2951;47.712;9.400;2023-02-23T08:44:16;9.60;99.90
5850;DHT22;2951;47.712;9.400;2023-02-23T08:46:42;9.70;99.90
5850;DHT22;2951;47.712;9.400;2023-02-23T08:49:10;9.80;99.90
5850;DHT22;2951;47.712;9.400;2023-02-23T08:51:37;9.80;99.90
5850;DHT22;2951;47.712;9.400;2023-02-23T08:54:04;9.90;99.90
5850;DHT22;2951;47.712;9.400;2023-02-23T08:56:35;10.10;99.90
5850;DHT22;2951;47.712;9.400;2023-02-23T08:59:01;10.20;99.90
5850;DHT22;2951;47.712;9.400;2023-02-23T09:01:28;10.10;99.90
5850;DHT22;2951;47.712;9.400;2023-02-23T09:03:55;10.20;99.90
5850;DHT22;2951;47.712;9.400;2023-02-23T09:06:22;10.10;99.90
5850;DHT22;2951;47.712;9.400;2023-02-23T09:08:51;10.20;99.90
5850;DHT22;2951;47.712;9.400;2023-02-23T09:11:17;10.30;99.90
5850;DHT22;2951;47.712;9.400;2023-02-23T09:13:44;10.40;99.90
5850;DHT22;2951;47.712;9.400;2023-02-23T09:16:11;10.50;99.90
5850;DHT22;2951;47.712;9.400;2023-02-23T09:18:38;10.60;99.90
5850;DHT22;2951;47.712;9.400;2023-02-23T09:21:05;10.70;99.90
5850;DHT22;2951;47.712;9.400;2023-02-23T09:23:33;10.70;99.90
5850;DHT22;2951;47.712;9.400;2023-02-23T09:26:03;10.80;99.90
5850;DHT22;2951;47.712;9.400;2023-02-23T09:28:30;10.90;99.90
5850;DHT22;2951;47.712;9.400;2023-02-23T09:31:33;11.00;99.90
5850;DHT22;2951;47.712;9.400;2023-02-23T09:33:52;11.10;99.90
5850;DHT22;2951;47.712;9.400;2023-02-23T09:36:20;11.10;99.90
5850;DHT22;2951;47.712;9.400;2023-02-23T09:38:50;11.20;99.90
5850;DHT22;2951;47.712;9.400;2023-02-23T09:44:08;11.20;99.90
5850;DHT22;2951;47.712;9.400;2023-02-23T09:46:47;11.20;99.90
5850;DHT22;2951;47.712;9.400;2023-02-23T09:49:16;11.30;99.90
5850;DHT22;2951;47.712;9.400;2023-02-23T09:51:45;11.40;99.90
5850;DHT22;2951;47.712;9.400;2023-02-23T09:54:13;11.50;99.90
5850;DHT22;2951;47.712;9.400;2023-02-23T09:56:42;11.40;99.90
5850;DHT22;2951;47.712;9.400;2023-02-23T09:59:12;11.50;99.90
5850;DHT22;2951;47.712;9.400;2023-02-23T10:06:43;11.50;99.90
5850;DHT22;2951;47.712;9.400;2023-02-23T10:11:43;12.00;99.90
5850;DHT22;2951;47.712;9.400;2023-02-23T10:14:14;12.10;99.90
5850;DHT22;2951;47.712;9.400;2023-02-23T10:19:20;12.20;99.90
5850;DHT22;2951;47.712;9.400;2023-02-23T10:22:00;12.10;99.90
5850;DHT22;2951;47.712;9.400;2023-02-23T10:24:38;12.10;99.90
5850;DHT22;2951;47.712;9.400;2023-02-23T10:27:13;12.10;99.90
5850;DHT22;2951;47.712;9.400;2023-02-23T10:29:42;12.20;99.90
5850;DHT22;2951;47.712;9.400;2023-02-23T10:32:14;12.20;99.90
5850;DHT22;2951;47.712;9.400;2023-02-23T10:34:44;12.20;99.90
5850;DHT22;2951;47.712;9.400;2023-02-23T10:37:12;12.30;99.90
5850;DHT22;2951;47.712;9.400;2023-02-23T10:39:41;12.30;99.90
5850;DHT22;2951;47.712;9.400;2023-02-23T10:42:12;12.20;99.90
5850;DHT22;2951;47.712;9.400;2023-02-23T10:44:41;12.10;99.90
5850;DHT22;2951;47.712;9.400;2023-02-23T10:47:18;12.10;99.90
5850;DHT22;2951;47.712;9.400;2023-02-23T10:49:47;12.20;99.90
5850;DHT22;2951;47.712;9.400;2023-02-23T10:52:16;12.30;99.90
5850;DHT22;2951;47.712;9.400;2023-02-23T10:54:47;12.20;99.90
5850;DHT22;2951;47.712;9.400;2023-02-23T11:02:38;12.20;99.90
5850;DHT22;2951;47.712;9.400;2023-02-23T11:05:08;12.10;99.90
5850;DHT22;2951;47.712;9.400;2023-02-23T11:07:51;12.10;99.90
5850;DHT22;2951;47.712;9.400;2023-02-23T11:10:34;12.00;99.90
5850;DHT22;2951;47.712;9.400;2023-02-23T11:13:01;12.10;99.90
5850;DHT22;2951;47.712;9.400;2023-02-23T11:15:29;12.40;99.90
5850;DHT22;2951;47.712;9.400;2023-02-23T11:18:21;12.70;99.90
5850;DHT22;2951;47.712;9.400;2023-02-23T11:20:48;12.80;99.90
5850;DHT22;2951;47.712;9.400;2023-02-23T11:25:46;12.70;99.90
5850;DHT22;2951;47.712;9.400;2023-02-23T11:28:16;12.70;99.90
5850;DHT22;2951;47.712;9.400;2023-02-23T11:30:46;12.60;99.90
5850;DHT22;2951;47.712;9.400;2023-02-23T11:33:16;12.70;99.90
5850;DHT22;2951;47.712;9.400;2023-02-23T11:35:44;12.70;99.90
5850;DHT22;2951;47.712;9.400;2023-02-23T11:38:15;12.80;99.90
5850;DHT22;2951;47.712;9.400;2023-02-23T11:41:04;13.20;99.90
5850;DHT22;2951;47.712;9.400;2023-02-23T11:43:34;13.30;99.90
5850;DHT22;2951;47.712;9.400;2023-02-23T11:46:01;13.40;99.90
5850;DHT22;2951;47.712;9.400;2023-02-23T11:50:56;13.30;99.90
5850;DHT22;2951;47.712;9.400;2023-02-23T11:53:26;13.20;99.90
5850;DHT22;2951;47.712;9.400;2023-02-23T11:55:54;13.30;99.90
5850;DHT22;2951;47.712;9.400;2023-02-23T11:58:26;13.40;99.90
5850;DHT22;2951;47.712;9.400;2023-02-23T12:00:55;13.20;99.90
5850;DHT22;2951;47.712;9.400;2023-02-23T12:03:22;13.10;99.90
5850;DHT22;2951;47.712;9.400;2023-02-23T12:05:52;13.20;99.90
5850;DHT22;2951;47.712;9.400;2023-02-23T12:08:22;13.10;99.90
5850;DHT22;2951;47.712;9.400;2023-02-23T12:10:53;13.30;99.90
5850;DHT22;2951;47.712;9.400;2023-02-23T12:23:39;13.20;99.90
5850;DHT22;2951;47.712;9.400;2023-02-23T12:26:13;13.50;99.90
5850;DHT22;2951;47.712;9.400;2023-02-23T12:28:53;13.70;99.90
5850;DHT22;2951;47.712;9.400;2023-02-23T12:31:25;13.50;99.90
5850;DHT22;2951;47.712;9.400;2023-02-23T12:33:58;13.40;99.90
5850;DHT22;2951;47.712;9.400;2023-02-23T12:38:56;13.70;99.90
5850;DHT22;2951;47.712;9.400;2023-02-23T12:41:36;13.90;99.90
5850;DHT22;2951;47.712;9.400;2023-02-23T12:44:28;14.00;99.90
5850;DHT22;2951;47.712;9.400;2023-02-23T12:46:51;14.10;99.90
5850;DHT22;2951;47.712;9.400;2023-02-23T12:51:53;14.20;99.90
5850;DHT22;2951;47.712;9.400;2023-02-23T12:54:21;14.30;99.90
5850;DHT22;2951;47.712;9.400;2023-02-23T12:56:49;14.40;99.90
5850;DHT22;2951;47.712;9.400;2023-02-23T12:59:26;14.50;99.90
5850;DHT22;2951;47.712;9.400;2023-02-23T13:01:58;14.40;99.90
5850;DHT22;2951;47.712;9.400;2023-02-23T13:05:27;14.20;99.90
5850;DHT22;2951;47.712;9.400;2023-02-23T13:10:19;14.30;99.90
5850;DHT22;2951;47.712;9.400;2023-02-23T13:15:28;14.90;99.90
5850;DHT22;2951;47.712;9.400;2023-02-23T13:20:32;14.70;99.90
5850;DHT22;2951;47.712;9.400;2023-02-23T13:26:03;14.80;99.90
5850;DHT22;2951;47.712;9.400;2023-02-23T13:31:19;14.70;99.90
5850;DHT22;2951;47.712;9.400;2023-02-23T13:33:47;14.80;99.90
5850;DHT22;2951;47.712;9.400;2023-02-23T13:36:14;14.90;99.90
5850;DHT22;2951;47.712;9.400;2023-02-23T13:41:26;15.00;99.90
5850;DHT22;2951;47.712;9.400;2023-02-23T13:44:00;14.80;99.90
5850;DHT22;2951;47.712;9.400;2023-02-23T13:51:54;15.50;99.90
5850;DHT22;2951;47.712;9.400;2023-02-23T13:54:23;15.30;99.90
5850;DHT22;2951;47.712;9.400;2023-02-23T13:56:52;15.40;99.90
5850;DHT22;2951;47.712;9.400;2023-02-23T13:59:21;15.50;99.90
5850;DHT22;2951;47.712;9.400;2023-02-23T14:01:49;15.20;99.90
5850;DHT22;2951;47.712;9.400;2023-02-23T14:04:20;15.10;99.90
5850;DHT22;2951;47.712;9.400;2023-02-23T14:07:01;15.10;99.90
5850;DHT22;2951;47.712;9.400;2023-02-23T14:09:30;14.90;99.90
5850;DHT22;2951;47.712;9.400;2023-02-23T14:19:36;15.10;99.90
5850;DHT22;2951;47.712;9.400;2023-02-23T14:22:14;15.80;99.90
5850;DHT22;2951;47.712;9.400;2023-02-23T14:24:42;16.40;99.90
5850;DHT22;2951;47.712;9.400;2023-02-23T14:29:39;16.50;99.90
5850;DHT22;2951;47.712;9.400;2023-02-23T14:32:30;17.00;99.90
5850;DHT22;2951;47.712;9.400;2023-02-23T14:34:57;17.40;99.90
5850;DHT22;2951;47.712;9.400;2023-02-23T14:40:04;17.50;99.90
5850;DHT22;2951;47.712;9.400;2023-02-23T14:42:34;17.30;99.90
5850;DHT22;2951;47.712;9.400;2023-02-23T14:45:04;17.60;99.90
5850;DHT22;2951;47.712;9.400;2023-02-23T14:47:39;18.20;99.90
5850;DHT22;2951;47.712;9.400;2023-02-23T14:50:07;18.20;99.90
5850;DHT22;2951;47.712;9.400;2023-02-23T14:52:41;17.90;99.90
5850;DHT22;2951;47.712;9.400;2023-02-23T14:57:38;17.40;99.90
5850;DHT22;2951;47.712;9.400;2023-02-23T15:00:10;16.90;99.90
5850;DHT22;2951;47.712;9.400;2023-02-23T15:02:37;16.60;99.90
5850;DHT22;2951;47.712;9.400;2023-02-23T15:05:19;16.70;99.90
5850;DHT22;2951;47.712;9.400;2023-02-23T15:07:48;16.60;99.90
5850;DHT22;2951;47.712;9.400;2023-02-23T15:10:19;16.60;99.90
5850;DHT22;2951;47.712;9.400;2023-02-23T15:12:47;16.70;99.90
5850;DHT22;2951;47.712;9.400;2023-02-23T15:15:18;16.60;99.90
5850;DHT22;2951;47.712;9.400;2023-02-23T15:17:45;17.00;99.90
5850;DHT22;2951;47.712;9.400;2023-02-23T15:20:14;16.90;99.90
5850;DHT22;2951;47.712;9.400;2023-02-23T15:22:44;17.20;99.90
5850;DHT22;2951;47.712;9.400;2023-02-23T15:25:13;17.30;99.90
5850;DHT22;2951;47.712;9.400;2023-02-23T15:27:41;17.90;99.90
5850;DHT22;2951;47.712;9.400;2023-02-23T15:32:43;17.00;99.90
5850;DHT22;2951;47.712;9.400;2023-02-23T15:35:11;16.70;99.90
5850;DHT22;2951;47.712;9.400;2023-02-23T15:37:39;16.40;99.90
5850;DHT22;2951;47.712;9.400;2023-02-23T15:40:09;15.80;99.90
5850;DHT22;2951;47.712;9.400;2023-02-23T15:42:41;15.30;99.90
5850;DHT22;2951;47.712;9.400;2023-02-23T15:45:13;15.10;99.90
5850;DHT22;2951;47.712;9.400;2023-02-23T15:47:41;15.40;99.90
5850;DHT22;2951;47.712;9.400;2023-02-23T15:50:18;15.50;99.90
5850;DHT22;2951;47.712;9.400;2023-02-23T15:53:02;15.40;99.90
5850;DHT22;2951;47.712;9.400;2023-02-23T15:55:34;15.30;99.90
5850;DHT22;2951;47.712;9.400;2023-02-23T15:58:12;15.20;99.90
5850;DHT22;2951;47.712;9.400;2023-02-23T16:00:42;15.30;99.90
5850;DHT22;2951;47.712;9.400;2023-02-23T16:03:25;15.70;99.90
5850;DHT22;2951;47.712;9.400;2023-02-23T16:06:03;15.80;99.90
5850;DHT22;2951;47.712;9.400;2023-02-23T16:08:30;15.30;99.90
5850;DHT22;2951;47.712;9.400;2023-02-23T16:11:14;15.10;99.90
5850;DHT22;2951;47.712;9.400;2023-02-23T16:13:42;15.20;99.90
5850;DHT22;2951;47.712;9.400;2023-02-23T16:16:10;15.30;99.90
5850;DHT22;2951;47.712;9.400;2023-02-23T16:18:45;15.30;99.90
5850;DHT22;2951;47.712;9.400;2023-02-23T16:21:14;15.30;99.90
5850;DHT22;2951;47.712;9.400;2023-02-23T16:23:43;15.20;99.90
5850;DHT22;2951;47.712;9.400;2023-02-23T16:26:15;15.00;99.90
5850;DHT22;2951;47.712;9.400;2023-02-23T16:28:43;14.70;99.90
5850;DHT22;2951;47.712;9.400;2023-02-23T16:31:10;14.30;99.90
5850;DHT22;2951;47.712;9.400;2023-02-23T16:33:43;14.10;99.90
5850;DHT22;2951;47.712;9.400;2023-02-23T16:38:38;13.40;99.90
5850;DHT22;2951;47.712;9.400;2023-02-23T16:41:05;13.20;99.90
5850;DHT22;2951;47.712;9.400;2023-02-23T16:43:36;13.10;99.90
5850;DHT22;2951;47.712;9.400;2023-02-23T16:46:02;12.90;99.90
5850;DHT22;2951;47.712;9.400;2023-02-23T16:48:29;12.80;99.90
5850;DHT22;2951;47.712;9.400;2023-02-23T16:50:56;12.50;99.90
5850;DHT22;2951;47.712;9.400;2023-02-23T16:53:22;12.30;99.90
5850;DHT22;2951;47.712;9.400;2023-02-23T16:55:50;12.10;99.90
5850;DHT22;2951;47.712;9.400;2023-02-23T16:58:19;12.00;99.90
5850;DHT22;2951;47.712;9.400;2023-02-23T17:00:46;11.90;99.90
5850;DHT22;2951;47.712;9.400;2023-02-23T17:03:21;11.80;99.90
5850;DHT22;2951;47.712;9.400;2023-02-23T17:05:48;11.70;99.90
5850;DHT22;2951;47.712;9.400;2023-02-23T17:08:15;11.50;99.90
5850;DHT22;2951;47.712;9.400;2023-02-23T17:10:42;11.40;99.90
5850;DHT22;2951;47.712;9.400;2023-02-23T17:13:20;11.20;99.90
5850;DHT22;2951;47.712;9.400;2023-02-23T17:15:48;11.10;99.90
5850;DHT22;2951;47.712;9.400;2023-02-23T17:18:20;11.00;99.90
5850;DHT22;2951;47.712;9.400;2023-02-23T17:20:54;10.90;99.90
5850;DHT22;2951;47.712;9.400;2023-02-23T17:23:23;10.80;99.90
5850;DHT22;2951;47.712;9.400;2023-02-23T17:25:52;10.70;99.90
5850;DHT22;2951;47.712;9.400;2023-02-23T17:28:20;10.60;99.90
5850;DHT22;2951;47.712;9.400;2023-02-23T17:30:47;10.50;99.90
5850;DHT22;2951;47.712;9.400;2023-02-23T17:33:14;10.40;99.90
5850;DHT22;2951;47.712;9.400;2023-02-23T17:35:40;10.30;99.90
5850;DHT22;2951;47.712;9.400;2023-02-23T17:38:08;10.20;99.90
5850;DHT22;2951;47.712;9.400;2023-02-23T17:40:34;10.10;99.90
5850;DHT22;2951;47.712;9.400;2023-02-23T17:43:04;9.90;99.90
5850;DHT22;2951;47.712;9.400;2023-02-23T17:45:32;9.90;99.90
5850;DHT22;2951;47.712;9.400;2023-02-23T17:47:59;9.90;99.90
5850;DHT22;2951;47.712;9.400;2023-02-23T17:50:26;9.80;99.90
5850;DHT22;2951;47.712;9.400;2023-02-23T17:52:52;9.70;99.90
5850;DHT22;2951;47.712;9.400;2023-02-23T17:55:20;9.60;99.90
5850;DHT22;2951;47.712;9.400;2023-02-23T17:57:47;9.50;99.90
5850;DHT22;2951;47.712;9.400;2023-02-23T18:00:14;9.50;99.90
5850;DHT22;2951;47.712;9.400;2023-02-23T18:02:41;9.40;99.90
5850;DHT22;2951;47.712;9.400;2023-02-23T18:05:09;9.40;99.90
5850;DHT22;2951;47.712;9.400;2023-02-23T18:07:36;9.20;99.90
5850;DHT22;2951;47.712;9.400;2023-02-23T18:10:04;9.10;99.90
5850;DHT22;2951;47.712;9.400;2023-02-23T18:12:31;9.10;99.90
5850;DHT22;2951;47.712;9.400;2023-02-23T18:14:58;8.90;99.90
5850;DHT22;2951;47.712;9.400;2023-02-23T18:17:24;8.90;99.90
5850;DHT22;2951;47.712;9.400;2023-02-23T18:19:51;8.90;99.90
5850;DHT22;2951;47.712;9.400;2023-02-23T18:22:18;8.80;99.90
5850;DHT22;2951;47.712;9.400;2023-02-23T18:24:45;8.80;99.90
5850;DHT22;2951;47.712;9.400;2023-02-23T18:27:12;8.60;99.90
5850;DHT22;2951;47.712;9.400;2023-02-23T18:29:39;8.50;99.90
5850;DHT22;2951;47.712;9.400;2023-02-23T18:32:06;8.40;99.90
5850;DHT22;2951;47.712;9.400;2023-02-23T18:34:34;8.30;99.90